Tuesday, October 16, 2018, 7:24 PM EDT
Back to Local

KELZ, Wellsville Municipal Airport

Location: Wellsville, NY, United States Lat: 42.1
Local Time: 7:24 PM EDT (23:24 GMT) Lon: -78
Time Zone: US/Eastern Elev: 2122 ft

Show me the last for .
Show Decoded

2018-10-16 17:56 METAR KELZ 162156Z AUTO 23009KT 10SM CLR 09/M02 A3000 RMK AO2 SLP171 T00891017 =
2018-10-16 16:56 METAR KELZ 162056Z AUTO VRB05G18KT 10SM CLR 10/M01 A3001 RMK AO2 SLP176
                 T01001011 56019 =
2018-10-16 15:56 METAR KELZ 161956Z AUTO 24009KT 10SM CLR 11/00 A3003 RMK AO2 SLP179 T01060000 =
2018-10-16 14:56 METAR KELZ 161856Z AUTO 24010G18KT 210V270 10SM FEW041 10/01 A3004 RMK AO2
                 SLP186 T01000006 =
2018-10-16 13:56 METAR KELZ 161756Z AUTO 28015G19KT 10SM BKN037 09/01 A3007 RMK AO2 SLP196
                 T00940006 10094 20028 58025 =
2018-10-16 13:06 METAR KELZ 161706Z AUTO 27015KT 10SM SCT029 BKN036 07/01 A3011 RMK AO2 T00720006
                 =
2018-10-16 12:56 METAR KELZ 161656Z AUTO 27009G18KT 10SM OVC029 06/00 A3011 RMK AO2 SLP211
                 T00610000 =
2018-10-16 11:56 METAR KELZ 161556Z AUTO 27010G19KT 10SM OVC029 06/M01 A3013 RMK AO2 SLP217
                 T00561006 =
2018-10-16 10:56 METAR KELZ 161456Z AUTO 27013G18KT 10SM OVC028 05/M01 A3015 RMK AO2 SLP222
                 T00501011 50000 =
2018-10-16 09:56 METAR KELZ 161356Z AUTO 28011G18KT 10SM OVC027 04/M01 A3016 RMK AO2 SLP226
                 T00441011 =
2018-10-16 08:56 METAR KELZ 161256Z AUTO 28012KT 10SM OVC026 03/M01 A3016 RMK AO2 SLP227
                 T00331011 =
2018-10-16 07:56 METAR KELZ 161156Z AUTO 26003KT 10SM OVC027 03/M01 A3015 RMK AO2 SLP222 70024
                 T00281011 10028 20006 51006 =
2018-10-16 06:56 METAR KELZ 161056Z AUTO VRB03KT 10SM OVC029 02/M02 A3014 RMK AO2 SLP218
                 T00221017 =
2018-10-16 06:08 METAR KELZ 161008Z AUTO 28008KT 10SM OVC029 02/M02 A3015 RMK AO2 T00171022 =
2018-10-16 05:56 METAR KELZ 160956Z AUTO 27008KT 10SM OVC030 02/M03 A3014 RMK AO2 SLP219
                 T00171028 =
2018-10-16 04:56 METAR KELZ 160856Z AUTO 26008KT 10SM FEW031 01/M03 A3013 RMK AO2 SLP215
                 T00111028 53004 =
2018-10-16 03:56 METAR KELZ 160756Z AUTO 28009KT 10SM CLR 01/M02 A3011 RMK AO2 SLP208 T00111022 =
2018-10-16 02:56 METAR KELZ 160656Z AUTO 28007KT 10SM CLR 02/M02 A3011 RMK AO2 SLP205 T00171022 =
2018-10-16 01:56 METAR KELZ 160556Z AUTO 29008KT 10SM CLR 02/M02 A3012 RMK AO2 SLP207 60001
                 T00221022 10094 20017 51017 =
2018-10-16 00:56 METAR KELZ 160456Z AUTO 30013KT 10SM CLR 03/M02 A3011 RMK AO2 PK WND 32033/0357
                 SLP203 T00331022 401560028 =
2018-10-15 23:56 METAR KELZ 160356Z AUTO 30021G27KT 10SM BKN030 BKN039 05/00 A3010 RMK AO2 PK WND
                 30027/0356 SLP199 T00500000 =
2018-10-15 22:56 METAR KELZ 160256Z AUTO 30015G23KT 10SM FEW021 SCT031 OVC046 07/02 A3007 RMK AO2
                 PK WND 29029/0236 SLP187 60001 T00670022 53036 =
2018-10-15 22:46 METAR KELZ 160246Z AUTO 30018G27KT 10SM FEW021 SCT026 BKN040 07/03 A3006 RMK AO2
                 PK WND 29029/0236 T00720028 =
2018-10-15 22:33 METAR KELZ 160233Z AUTO 30019G26KT 10SM BKN023 BKN031 OVC037 07/03 A3005 RMK AO2
                 PK WND 33026/0230 T00720033 =
2018-10-15 21:56 METAR KELZ 160156Z AUTO 27014G22KT 10SM SCT045 07/03 A3002 RMK AO2 PK WND
                 29027/0126 SLP172 T00720033 =
2018-10-15 20:56 METAR KELZ 160056Z AUTO 29016G27KT 10SM FEW023 BKN041 08/06 A2999 RMK AO2 PK WND
                 29027/0049 RAE18 SLP160 P0001 T00830056 =
2018-10-15 20:47 METAR KELZ 160047Z AUTO 28017G22KT 10SM FEW016 SCT027 BKN042 08/06 A2998 RMK AO2
                 PK WND 30026/0037 RAE18 P0001 T00830061 =
2018-10-15 19:56 METAR KELZ 152356Z AUTO 28013G20KT 8SM -RA SCT013 OVC019 09/08 A2995 RMK AO2 PK
                 WND 28034/2317 RAB12E24B47 SLP148 P0000 60021 T00940083 10156 20094 51020 =

Support USWX by starting your Amazon purchase here.